createdAt,value
2018-07-03T00:01:44.649Z,0.87
2018-07-03T00:05:47.622Z,0.80
2018-07-03T00:09:50.592Z,0.97
2018-07-03T00:13:53.344Z,0.93
2018-07-03T00:17:56.199Z,1.00
2018-07-03T00:21:59.012Z,0.80
2018-07-03T00:26:01.774Z,0.80
2018-07-03T00:30:04.701Z,0.90
2018-07-03T00:34:07.505Z,0.90
2018-07-03T00:38:10.351Z,0.70
2018-07-03T00:42:13.156Z,0.83
2018-07-03T00:46:15.943Z,1.00
2018-07-03T00:50:18.701Z,0.70
2018-07-03T00:54:21.590Z,0.70
2018-07-03T00:58:24.364Z,1.03
2018-07-03T01:02:27.220Z,1.00
2018-07-03T01:06:30.206Z,1.00
2018-07-03T01:10:33.157Z,1.30
2018-07-03T01:14:36.014Z,1.00
2018-07-03T01:18:38.793Z,1.00
2018-07-03T01:22:41.588Z,1.10
2018-07-03T01:26:44.322Z,1.03
2018-07-03T01:30:47.154Z,1.10
2018-07-03T01:34:49.958Z,0.90
2018-07-03T01:38:52.742Z,1.40
2018-07-03T01:42:55.476Z,1.00
2018-07-03T01:46:58.265Z,1.00
2018-07-03T01:51:01.004Z,1.30
2018-07-03T01:55:03.708Z,0.90
2018-07-03T01:59:06.571Z,1.00
2018-07-03T02:03:09.421Z,0.80
2018-07-03T02:07:12.215Z,1.10
2018-07-03T02:11:15.039Z,0.90
2018-07-03T02:15:17.846Z,1.30
2018-07-03T02:19:20.582Z,1.20
2018-07-03T02:23:23.357Z,1.20
2018-07-03T02:27:26.189Z,1.27
2018-07-03T02:31:29.082Z,1.03
2018-07-03T02:35:31.916Z,1.40
2018-07-03T02:39:34.783Z,1.13
2018-07-03T02:43:37.530Z,0.93
2018-07-03T02:47:40.394Z,1.17
2018-07-03T02:51:43.220Z,1.67
2018-07-03T02:55:46.017Z,1.80
2018-07-03T02:59:48.822Z,1.50
2018-07-03T03:03:51.781Z,1.13
2018-07-03T03:07:54.609Z,1.37
2018-07-03T03:11:57.478Z,1.83
2018-07-03T03:16:00.345Z,1.13
2018-07-03T03:20:03.435Z,1.47
2018-07-03T03:24:06.236Z,1.37
2018-07-03T03:28:09.005Z,1.70
2018-07-03T03:32:11.849Z,1.70
2018-07-03T03:36:14.662Z,1.70
2018-07-03T03:40:17.464Z,1.93
2018-07-03T03:44:20.289Z,1.07
2018-07-03T03:48:23.136Z,2.10
2018-07-03T03:52:27.782Z,1.23
2018-07-03T03:56:30.552Z,1.60
2018-07-03T04:00:33.344Z,1.80
2018-07-03T04:04:36.273Z,1.90
2018-07-03T04:08:39.269Z,1.63
2018-07-03T04:12:42.138Z,2.03
2018-07-03T04:16:48.529Z,2.60
2018-07-03T04:20:53.046Z,1.30
2018-07-03T04:24:55.821Z,1.70
2018-07-03T04:28:58.581Z,1.70
2018-07-03T04:33:01.341Z,2.20
2018-07-03T04:37:04.155Z,1.53
2018-07-03T04:41:06.934Z,1.33
2018-07-03T04:45:09.755Z,1.60
2018-07-03T04:49:12.617Z,1.77
2018-07-03T04:53:15.393Z,2.10
2018-07-03T04:57:18.195Z,1.80
2018-07-03T05:01:21.142Z,1.70
2018-07-03T05:05:23.940Z,2.13
2018-07-03T05:09:26.707Z,2.07
2018-07-03T05:13:29.481Z,2.17
2018-07-03T05:17:32.323Z,2.47
2018-07-03T05:21:35.107Z,2.00
2018-07-03T05:25:37.968Z,2.33
2018-07-03T05:29:40.758Z,1.90
2018-07-03T05:33:43.561Z,1.90
2018-07-03T05:37:46.349Z,2.10
2018-07-03T05:41:49.984Z,2.17
2018-07-03T05:45:52.767Z,2.20
2018-07-03T05:49:55.559Z,2.70
2018-07-03T05:53:58.255Z,2.00
2018-07-03T05:58:01.095Z,2.37
2018-07-03T06:02:04.037Z,1.80
2018-07-03T06:06:06.857Z,2.00
2018-07-03T06:10:09.724Z,2.80
2018-07-03T06:14:12.581Z,2.20
2018-07-03T06:18:15.400Z,1.43
2018-07-03T06:22:18.270Z,2.17
2018-07-03T06:26:21.079Z,2.20
2018-07-03T06:30:23.860Z,2.17
2018-07-03T06:34:26.653Z,1.97
2018-07-03T06:38:29.478Z,2.40
2018-07-03T06:42:32.214Z,1.90
2018-07-03T06:46:35.097Z,1.60
2018-07-03T06:50:37.912Z,2.23
2018-07-03T06:54:40.692Z,2.00
2018-07-03T06:58:43.609Z,1.40
2018-07-03T07:02:46.418Z,1.63
2018-07-03T07:06:49.240Z,1.70
2018-07-03T07:10:52.672Z,1.67
2018-07-03T07:14:55.498Z,1.70
2018-07-03T07:18:58.310Z,1.70
2018-07-03T07:23:02.069Z,1.90
2018-07-03T07:27:05.134Z,1.87
2018-07-03T07:31:07.987Z,1.37
2018-07-03T07:35:10.886Z,1.90
2018-07-03T07:39:13.706Z,2.30
2018-07-03T07:43:16.548Z,1.90
2018-07-03T07:47:19.328Z,1.70
2018-07-03T07:51:22.151Z,1.93
2018-07-03T07:55:24.933Z,2.10
2018-07-03T07:59:27.792Z,1.70
2018-07-03T08:03:30.599Z,1.47
2018-07-03T08:07:33.374Z,1.53
2018-07-03T08:11:36.724Z,1.30
2018-07-03T08:15:39.566Z,1.73
2018-07-03T08:19:42.410Z,1.83
2018-07-03T08:23:45.189Z,1.53
2018-07-03T08:27:49.012Z,1.50
2018-07-03T08:31:51.918Z,1.20
2018-07-03T08:35:54.841Z,1.40
2018-07-03T08:39:57.726Z,1.20
2018-07-03T08:44:00.503Z,1.03
2018-07-03T08:48:03.977Z,1.40
2018-07-03T08:52:06.857Z,1.50
2018-07-03T08:56:10.678Z,1.03
2018-07-03T09:00:13.500Z,1.10
2018-07-03T09:04:16.697Z,1.20
2018-07-03T09:08:19.664Z,1.50
2018-07-03T09:12:22.481Z,1.20
2018-07-03T09:16:25.280Z,1.17
2018-07-03T09:20:28.118Z,1.47
2018-07-03T09:24:30.862Z,1.30
2018-07-03T09:28:33.679Z,1.40
2018-07-03T09:32:36.487Z,1.20
2018-07-03T09:36:39.279Z,1.10
2018-07-03T09:40:42.100Z,1.10
2018-07-03T09:44:44.904Z,1.30
2018-07-03T09:48:47.813Z,1.17
2018-07-03T09:52:50.577Z,0.90
2018-07-03T09:56:53.537Z,1.00
2018-07-03T10:00:57.272Z,1.10
2018-07-03T10:05:00.127Z,1.20
2018-07-03T10:09:03.238Z,1.33
2018-07-03T10:13:06.105Z,1.20
2018-07-03T10:17:11.213Z,0.93
2018-07-03T10:21:14.078Z,1.10
2018-07-03T10:25:16.888Z,1.13
2018-07-03T10:29:19.668Z,1.10
2018-07-03T10:33:22.452Z,1.17
2018-07-03T10:37:25.295Z,1.00
2018-07-03T10:41:28.367Z,1.20
2018-07-03T10:45:31.202Z,1.37
2018-07-03T10:49:33.983Z,1.27
2018-07-03T10:53:37.771Z,1.20
2018-07-03T10:57:40.614Z,1.10
2018-07-03T11:01:43.470Z,1.20
2018-07-03T11:05:46.269Z,1.10
2018-07-03T11:09:49.106Z,1.00
2018-07-03T11:13:52.051Z,1.10
2018-07-03T11:17:54.801Z,1.03
2018-07-03T11:21:57.706Z,1.20
2018-07-03T11:26:01.353Z,1.20
2018-07-03T11:30:05.430Z,1.40
2018-07-03T11:34:08.573Z,1.33
2018-07-03T11:38:11.513Z,1.37
2018-07-03T11:42:14.364Z,1.07
2018-07-03T11:46:17.254Z,1.20
2018-07-03T11:50:20.056Z,1.00
2018-07-03T11:54:22.915Z,1.20
2018-07-03T11:58:25.840Z,0.83
2018-07-03T12:02:28.670Z,1.00
2018-07-03T12:06:31.561Z,1.10
2018-07-03T12:10:34.360Z,1.17
2018-07-03T12:14:39.226Z,1.40
2018-07-03T12:18:47.757Z,1.00
2018-07-03T12:22:50.719Z,1.27
2018-07-03T12:26:53.605Z,1.00
2018-07-03T12:30:56.478Z,1.20
2018-07-03T12:34:59.402Z,1.03
2018-07-03T12:39:04.107Z,1.13
2018-07-03T12:43:07.017Z,1.27
2018-07-03T12:47:09.840Z,1.43
2018-07-03T12:51:12.762Z,1.30
2018-07-03T12:55:15.663Z,1.10
2018-07-03T12:59:18.539Z,1.43
2018-07-03T13:03:21.410Z,1.23
2018-07-03T13:07:24.212Z,1.17
2018-07-03T13:11:27.099Z,1.37
2018-07-03T13:15:29.892Z,1.10
2018-07-03T13:19:32.692Z,1.00
2018-07-03T13:23:35.569Z,1.37
2018-07-03T13:27:38.401Z,1.00
2018-07-03T13:31:41.388Z,1.10
2018-07-03T13:35:44.299Z,1.53
2018-07-03T13:39:47.134Z,1.40
2018-07-03T13:43:49.958Z,1.17
2018-07-03T13:47:52.696Z,1.30
2018-07-03T13:51:55.576Z,1.40
2018-07-03T13:55:58.365Z,1.30
2018-07-03T14:00:01.222Z,1.47
2018-07-03T14:04:04.200Z,1.50
2018-07-03T14:08:08.446Z,1.40
2018-07-03T14:12:11.297Z,1.50
2018-07-03T14:16:14.136Z,1.50
2018-07-03T14:20:16.928Z,1.33
2018-07-03T14:24:19.690Z,1.03
2018-07-03T14:28:22.518Z,1.30
2018-07-03T14:32:25.336Z,1.20
2018-07-03T14:36:29.009Z,1.03
2018-07-03T14:40:31.859Z,1.33
2018-07-03T14:44:34.757Z,1.40
2018-07-03T14:48:37.612Z,1.40
2018-07-03T14:52:40.439Z,1.20
2018-07-03T14:56:43.325Z,1.60
2018-07-03T15:00:46.805Z,1.60
2018-07-03T15:04:49.592Z,1.20
2018-07-03T15:08:52.482Z,1.23
2018-07-03T15:12:55.864Z,1.50
2018-07-03T15:16:58.686Z,1.80
2018-07-03T15:21:01.512Z,1.27
2018-07-03T15:25:04.486Z,1.20
2018-07-03T15:29:07.502Z,1.40
2018-07-03T15:33:10.988Z,1.50
2018-07-03T15:37:13.757Z,1.30
2018-07-03T15:41:16.663Z,1.10
2018-07-03T15:45:19.472Z,1.30
2018-07-03T15:49:22.282Z,1.40
2018-07-03T15:53:25.062Z,1.10
2018-07-03T15:57:28.096Z,0.90
2018-07-03T16:01:30.960Z,1.17
2018-07-03T16:05:45.039Z,1.00
2018-07-03T16:09:47.919Z,0.93
2018-07-03T16:13:50.780Z,1.17
2018-07-03T16:17:53.677Z,1.03
2018-07-03T16:21:57.183Z,1.27
2018-07-03T16:25:59.986Z,1.10
2018-07-03T16:30:02.973Z,1.00
2018-07-03T16:34:05.785Z,1.10
2018-07-03T16:38:08.588Z,1.27
2018-07-03T16:42:11.488Z,1.07
2018-07-03T16:46:14.338Z,1.53
2018-07-03T16:50:17.239Z,1.60
2018-07-03T16:54:19.951Z,1.10
2018-07-03T16:58:22.794Z,1.10
2018-07-03T17:02:25.557Z,1.10
2018-07-03T17:06:28.859Z,1.20
2018-07-03T17:10:31.608Z,1.40
2018-07-03T17:14:34.528Z,1.70
2018-07-03T17:18:40.173Z,1.10
2018-07-03T17:22:43.002Z,2.57
2018-07-03T17:26:45.888Z,1.83
2018-07-03T17:30:48.821Z,2.47
2018-07-03T17:34:51.821Z,1.60
2018-07-03T17:38:54.653Z,1.70
2018-07-03T17:43:09.316Z,1.30
2018-07-03T17:47:12.109Z,1.40
2018-07-03T17:51:14.938Z,1.30
2018-07-03T17:55:18.073Z,1.30
2018-07-03T17:59:20.993Z,1.40
2018-07-03T18:03:23.934Z,1.90
2018-07-03T18:07:26.865Z,1.40
2018-07-03T18:11:29.737Z,2.03
2018-07-03T18:15:32.574Z,1.20
2018-07-03T18:19:41.042Z,1.33
2018-07-03T18:23:43.802Z,1.40
2018-07-03T18:27:46.584Z,1.30
2018-07-03T18:31:49.340Z,1.30
2018-07-03T18:35:52.225Z,1.20
2018-07-03T18:39:55.149Z,1.40
2018-07-03T18:43:58.059Z,1.17
2018-07-03T18:48:00.940Z,1.40
2018-07-03T18:52:03.838Z,1.50
2018-07-03T18:56:06.678Z,1.40
2018-07-03T19:00:09.588Z,1.43
2018-07-03T19:04:12.454Z,1.37
2018-07-03T19:08:15.332Z,1.50
2018-07-03T19:12:18.143Z,1.40
2018-07-03T19:16:20.977Z,1.40
2018-07-03T19:20:23.725Z,1.60
2018-07-03T19:24:26.496Z,1.40
2018-07-03T19:28:29.343Z,1.87
2018-07-03T19:32:32.266Z,1.30
2018-07-03T19:36:35.063Z,1.40
2018-07-03T19:40:38.017Z,0.83
2018-07-03T19:44:40.846Z,1.43
2018-07-03T19:48:43.650Z,1.60
2018-07-03T19:52:46.500Z,1.47
2018-07-03T19:56:49.328Z,1.40
2018-07-03T20:00:53.051Z,1.27
2018-07-03T20:04:55.877Z,2.23
2018-07-03T20:08:58.736Z,2.10
2018-07-03T20:13:01.679Z,2.67
2018-07-03T20:17:04.516Z,2.43
2018-07-03T20:21:07.465Z,2.10
2018-07-03T20:25:10.321Z,2.80
2018-07-03T20:29:13.876Z,2.00
2018-07-03T20:33:16.796Z,2.30
2018-07-03T20:37:19.600Z,2.53
2018-07-03T20:41:22.481Z,2.80
2018-07-03T20:45:25.256Z,2.70
2018-07-03T20:49:28.044Z,3.00
2018-07-03T20:53:30.808Z,2.70
2018-07-03T20:57:33.970Z,3.57
2018-07-03T21:01:36.784Z,3.57
2018-07-03T21:05:39.664Z,3.40
2018-07-03T21:09:42.402Z,3.00
2018-07-03T21:13:45.222Z,3.50
2018-07-03T21:17:47.886Z,4.13
2018-07-03T21:21:50.764Z,3.73
2018-07-03T21:25:53.528Z,3.67
2018-07-03T21:29:56.290Z,3.90
2018-07-03T21:33:59.111Z,3.63
2018-07-03T21:38:01.883Z,4.30
2018-07-03T21:42:04.755Z,4.50
2018-07-03T21:46:07.523Z,3.80
2018-07-03T21:50:10.337Z,4.60
2018-07-03T21:54:13.388Z,3.87
2018-07-03T21:58:16.183Z,4.03
2018-07-03T22:02:18.975Z,4.47
2018-07-03T22:06:21.839Z,4.30
2018-07-03T22:10:24.793Z,3.70
2018-07-03T22:14:28.427Z,4.50
2018-07-03T22:18:31.212Z,3.97
2018-07-03T22:22:34.080Z,4.30
2018-07-03T22:26:36.867Z,4.53
2018-07-03T22:30:39.700Z,4.20
2018-07-03T22:34:42.587Z,4.63
2018-07-03T22:38:45.496Z,4.43
2018-07-03T22:42:48.188Z,4.83
2018-07-03T22:46:51.286Z,3.10
2018-07-03T22:50:54.079Z,3.80
2018-07-03T22:54:56.815Z,4.40
2018-07-03T22:58:59.653Z,3.60
2018-07-03T23:03:02.413Z,4.50
2018-07-03T23:07:05.195Z,3.63
2018-07-03T23:11:07.931Z,4.30
2018-07-03T23:15:10.646Z,4.07
2018-07-03T23:19:13.372Z,4.37
2018-07-03T23:23:16.267Z,4.30
2018-07-03T23:27:19.055Z,5.10
2018-07-03T23:31:21.796Z,3.93
2018-07-03T23:35:24.533Z,4.00
2018-07-03T23:39:27.316Z,4.83
2018-07-03T23:43:30.127Z,4.87
2018-07-03T23:47:44.179Z,4.83
2018-07-03T23:52:04.310Z,5.03
2018-07-03T23:56:24.513Z,5.03
